sensor_id;sensor_type;location;lat;lon;timestamp;pressure;altitude;pressure_sealevel;temperature;humidity
12536;BME280;6334;48.696;2.114;2023-08-07T00:02:20;100372.64;;;15.25;66.13
12536;BME280;6334;48.696;2.114;2023-08-07T00:04:51;100366.29;;;15.74;64.24
12536;BME280;6334;48.696;2.114;2023-08-07T00:07:21;100367.80;;;15.34;65.77
12536;BME280;6334;48.696;2.114;2023-08-07T00:09:51;100377.64;;;15.64;64.91
12536;BME280;6334;48.696;2.114;2023-08-07T00:12:22;100377.40;;;15.63;65.62
12536;BME280;6334;48.696;2.114;2023-08-07T00:14:52;100376.05;;;15.45;66.56
12536;BME280;6334;48.696;2.114;2023-08-07T00:17:23;100376.62;;;15.61;65.73
12536;BME280;6334;48.696;2.114;2023-08-07T00:19:53;100373.02;;;15.67;65.48
12536;BME280;6334;48.696;2.114;2023-08-07T00:22:24;100369.87;;;15.51;66.37
12536;BME280;6334;48.696;2.114;2023-08-07T00:24:54;100372.66;;;15.36;66.86
12536;BME280;6334;48.696;2.114;2023-08-07T00:27:25;100371.36;;;15.58;66.44
12536;BME280;6334;48.696;2.114;2023-08-07T00:29:55;100374.72;;;15.34;67.55
12536;BME280;6334;48.696;2.114;2023-08-07T00:32:26;100372.86;;;15.51;65.91
12536;BME280;6334;48.696;2.114;2023-08-07T00:34:56;100370.58;;;15.52;65.98
12536;BME280;6334;48.696;2.114;2023-08-07T00:37:27;100365.89;;;15.29;67.62
12536;BME280;6334;48.696;2.114;2023-08-07T00:39:57;100366.73;;;15.58;67.02
12536;BME280;6334;48.696;2.114;2023-08-07T00:42:27;100369.70;;;15.56;67.09
12536;BME280;6334;48.696;2.114;2023-08-07T00:44:58;100366.28;;;15.07;67.82
12536;BME280;6334;48.696;2.114;2023-08-07T00:47:28;100362.05;;;15.41;66.89
12536;BME280;6334;48.696;2.114;2023-08-07T00:49:59;100363.92;;;14.95;68.89
12536;BME280;6334;48.696;2.114;2023-08-07T00:52:29;100364.48;;;15.42;67.59
12536;BME280;6334;48.696;2.114;2023-08-07T00:55:00;100366.70;;;15.17;67.87
12536;BME280;6334;48.696;2.114;2023-08-07T00:57:30;100366.00;;;15.44;67.61
12536;BME280;6334;48.696;2.114;2023-08-07T01:00:01;100360.48;;;14.91;69.27
12536;BME280;6334;48.696;2.114;2023-08-07T01:02:32;100355.34;;;15.12;68.63
12536;BME280;6334;48.696;2.114;2023-08-07T01:05:03;100357.12;;;15.24;67.57
12536;BME280;6334;48.696;2.114;2023-08-07T01:07:33;100354.13;;;15.42;67.02
12536;BME280;6334;48.696;2.114;2023-08-07T01:10:04;100358.02;;;15.10;69.22
12536;BME280;6334;48.696;2.114;2023-08-07T01:12:36;100359.64;;;14.81;69.40
12536;BME280;6334;48.696;2.114;2023-08-07T01:15:10;100348.96;;;15.00;69.84
12536;BME280;6334;48.696;2.114;2023-08-07T01:17:38;100349.42;;;15.21;68.28
12536;BME280;6334;48.696;2.114;2023-08-07T01:20:08;100352.26;;;15.19;68.39
12536;BME280;6334;48.696;2.114;2023-08-07T01:22:39;100350.77;;;15.18;69.06
12536;BME280;6334;48.696;2.114;2023-08-07T01:25:09;100347.94;;;15.33;68.36
12536;BME280;6334;48.696;2.114;2023-08-07T01:27:46;100346.91;;;15.24;68.51
12536;BME280;6334;48.696;2.114;2023-08-07T01:30:26;100349.41;;;15.09;69.32
12536;BME280;6334;48.696;2.114;2023-08-07T01:33:10;100347.66;;;15.02;68.86
12536;BME280;6334;48.696;2.114;2023-08-07T01:35:46;100341.59;;;15.16;68.21
12536;BME280;6334;48.696;2.114;2023-08-07T01:38:15;100342.95;;;15.18;68.91
12536;BME280;6334;48.696;2.114;2023-08-07T01:40:45;100343.83;;;14.94;69.34
12536;BME280;6334;48.696;2.114;2023-08-07T01:43:16;100339.36;;;14.72;70.19
12536;BME280;6334;48.696;2.114;2023-08-07T01:45:46;100342.23;;;14.77;71.50
12536;BME280;6334;48.696;2.114;2023-08-07T01:48:16;100338.57;;;14.73;71.31
12536;BME280;6334;48.696;2.114;2023-08-07T01:50:47;100343.77;;;14.80;71.21
12536;BME280;6334;48.696;2.114;2023-08-07T01:53:17;100340.28;;;14.56;72.16
12536;BME280;6334;48.696;2.114;2023-08-07T01:55:48;100339.72;;;14.90;70.00
12536;BME280;6334;48.696;2.114;2023-08-07T01:58:18;100341.61;;;15.09;70.72
12536;BME280;6334;48.696;2.114;2023-08-07T02:00:49;100344.23;;;14.63;71.82
12536;BME280;6334;48.696;2.114;2023-08-07T02:03:19;100338.48;;;15.04;70.71
12536;BME280;6334;48.696;2.114;2023-08-07T02:05:50;100337.71;;;14.94;70.22
12536;BME280;6334;48.696;2.114;2023-08-07T02:08:20;100338.23;;;14.73;72.49
12536;BME280;6334;48.696;2.114;2023-08-07T02:10:51;100335.37;;;15.07;70.39
12536;BME280;6334;48.696;2.114;2023-08-07T02:13:21;100335.73;;;14.53;73.09
12536;BME280;6334;48.696;2.114;2023-08-07T02:15:51;100338.06;;;14.86;71.92
12536;BME280;6334;48.696;2.114;2023-08-07T02:18:22;100340.34;;;14.79;72.21
12536;BME280;6334;48.696;2.114;2023-08-07T02:20:52;100339.81;;;15.08;70.77
12536;BME280;6334;48.696;2.114;2023-08-07T02:23:24;100339.69;;;15.19;70.03
12536;BME280;6334;48.696;2.114;2023-08-07T02:25:55;100342.72;;;14.71;71.37
12536;BME280;6334;48.696;2.114;2023-08-07T02:28:25;100340.74;;;14.86;72.22
12536;BME280;6334;48.696;2.114;2023-08-07T02:30:56;100343.45;;;15.09;70.51
12536;BME280;6334;48.696;2.114;2023-08-07T02:33:26;100340.97;;;15.07;70.33
12536;BME280;6334;48.696;2.114;2023-08-07T02:35:59;100343.62;;;14.89;72.01
12536;BME280;6334;48.696;2.114;2023-08-07T02:38:30;100342.88;;;14.42;73.86
12536;BME280;6334;48.696;2.114;2023-08-07T02:41:00;100345.41;;;14.77;73.00
12536;BME280;6334;48.696;2.114;2023-08-07T02:43:31;100343.38;;;14.82;72.68
12536;BME280;6334;48.696;2.114;2023-08-07T02:46:01;100342.98;;;14.98;70.93
12536;BME280;6334;48.696;2.114;2023-08-07T02:48:31;100342.95;;;15.06;71.27
12536;BME280;6334;48.696;2.114;2023-08-07T02:51:02;100346.41;;;15.05;70.85
12536;BME280;6334;48.696;2.114;2023-08-07T02:53:32;100343.45;;;14.75;72.99
12536;BME280;6334;48.696;2.114;2023-08-07T02:56:03;100333.84;;;15.01;71.46
12536;BME280;6334;48.696;2.114;2023-08-07T02:58:33;100337.09;;;14.45;73.45
12536;BME280;6334;48.696;2.114;2023-08-07T03:01:04;100347.16;;;14.64;72.53
12536;BME280;6334;48.696;2.114;2023-08-07T03:03:34;100337.99;;;14.76;71.61
12536;BME280;6334;48.696;2.114;2023-08-07T03:06:05;100337.30;;;14.66;73.35
12536;BME280;6334;48.696;2.114;2023-08-07T03:08:35;100341.10;;;14.27;74.15
12536;BME280;6334;48.696;2.114;2023-08-07T03:11:06;100346.64;;;14.37;73.19
12536;BME280;6334;48.696;2.114;2023-08-07T03:13:36;100354.03;;;14.64;73.44
12536;BME280;6334;48.696;2.114;2023-08-07T03:16:08;100356.59;;;14.57;73.90
12536;BME280;6334;48.696;2.114;2023-08-07T03:18:38;100353.59;;;14.64;72.26
12536;BME280;6334;48.696;2.114;2023-08-07T03:21:09;100356.17;;;14.42;74.28
12536;BME280;6334;48.696;2.114;2023-08-07T03:23:39;100352.19;;;14.29;73.92
12536;BME280;6334;48.696;2.114;2023-08-07T03:26:11;100351.66;;;14.37;74.04
12536;BME280;6334;48.696;2.114;2023-08-07T03:28:40;100353.86;;;14.29;73.87
12536;BME280;6334;48.696;2.114;2023-08-07T03:31:11;100355.93;;;14.26;74.92
12536;BME280;6334;48.696;2.114;2023-08-07T03:33:41;100353.48;;;14.72;72.58
12536;BME280;6334;48.696;2.114;2023-08-07T03:36:11;100354.95;;;14.67;73.47
12536;BME280;6334;48.696;2.114;2023-08-07T03:38:43;100356.00;;;14.58;74.03
12536;BME280;6334;48.696;2.114;2023-08-07T03:41:14;100354.12;;;14.60;72.95
12536;BME280;6334;48.696;2.114;2023-08-07T03:43:44;100355.16;;;14.23;75.30
12536;BME280;6334;48.696;2.114;2023-08-07T03:46:16;100353.92;;;14.53;73.51
12536;BME280;6334;48.696;2.114;2023-08-07T03:48:46;100359.58;;;14.43;74.53
12536;BME280;6334;48.696;2.114;2023-08-07T03:51:17;100357.02;;;14.49;74.33
12536;BME280;6334;48.696;2.114;2023-08-07T03:53:47;100358.59;;;14.62;73.76
12536;BME280;6334;48.696;2.114;2023-08-07T03:56:18;100359.72;;;14.41;74.37
12536;BME280;6334;48.696;2.114;2023-08-07T03:58:48;100360.75;;;14.54;74.15
12536;BME280;6334;48.696;2.114;2023-08-07T04:01:18;100358.63;;;14.48;74.08
12536;BME280;6334;48.696;2.114;2023-08-07T04:03:49;100361.02;;;14.58;73.88
12536;BME280;6334;48.696;2.114;2023-08-07T04:06:20;100359.17;;;14.53;74.11
12536;BME280;6334;48.696;2.114;2023-08-07T04:08:50;100363.03;;;14.38;75.00
12536;BME280;6334;48.696;2.114;2023-08-07T04:11:20;100362.56;;;14.68;73.09
12536;BME280;6334;48.696;2.114;2023-08-07T04:13:51;100362.05;;;14.45;74.58
12536;BME280;6334;48.696;2.114;2023-08-07T04:16:21;100364.22;;;14.65;73.22
12536;BME280;6334;48.696;2.114;2023-08-07T04:18:52;100366.83;;;14.88;73.25
12536;BME280;6334;48.696;2.114;2023-08-07T04:21:22;100370.33;;;14.79;73.79
12536;BME280;6334;48.696;2.114;2023-08-07T04:23:53;100366.23;;;14.71;73.59
12536;BME280;6334;48.696;2.114;2023-08-07T04:26:23;100364.77;;;14.80;73.06
12536;BME280;6334;48.696;2.114;2023-08-07T04:28:53;100367.89;;;14.72;74.18
12536;BME280;6334;48.696;2.114;2023-08-07T04:31:24;100369.31;;;14.69;73.18
12536;BME280;6334;48.696;2.114;2023-08-07T04:33:54;100370.98;;;14.58;74.39
12536;BME280;6334;48.696;2.114;2023-08-07T04:36:25;100371.74;;;14.61;73.94
12536;BME280;6334;48.696;2.114;2023-08-07T04:38:55;100379.58;;;14.47;73.63
12536;BME280;6334;48.696;2.114;2023-08-07T04:41:27;100377.00;;;14.07;76.63
12536;BME280;6334;48.696;2.114;2023-08-07T04:43:58;100380.38;;;14.42;74.56
12536;BME280;6334;48.696;2.114;2023-08-07T04:46:28;100379.96;;;14.45;74.94
12536;BME280;6334;48.696;2.114;2023-08-07T04:48:58;100373.70;;;14.68;73.59
12536;BME280;6334;48.696;2.114;2023-08-07T04:51:29;100375.64;;;14.60;74.46
12536;BME280;6334;48.696;2.114;2023-08-07T04:53:59;100374.30;;;14.63;74.23
12536;BME280;6334;48.696;2.114;2023-08-07T04:56:30;100378.95;;;14.76;74.18
12536;BME280;6334;48.696;2.114;2023-08-07T04:59:00;100385.06;;;14.57;75.70
12536;BME280;6334;48.696;2.114;2023-08-07T05:01:31;100379.45;;;14.41;74.67
12536;BME280;6334;48.696;2.114;2023-08-07T05:04:01;100382.47;;;14.57;74.37
12536;BME280;6334;48.696;2.114;2023-08-07T05:06:32;100381.24;;;14.99;72.78
12536;BME280;6334;48.696;2.114;2023-08-07T05:09:02;100378.94;;;14.46;74.56
12536;BME280;6334;48.696;2.114;2023-08-07T05:11:33;100380.88;;;14.83;73.86
12536;BME280;6334;48.696;2.114;2023-08-07T05:14:03;100378.67;;;14.76;75.22
12536;BME280;6334;48.696;2.114;2023-08-07T05:16:34;100384.41;;;14.44;77.10
12536;BME280;6334;48.696;2.114;2023-08-07T05:19:04;100382.31;;;14.42;76.45
12536;BME280;6334;48.696;2.114;2023-08-07T05:21:35;100387.00;;;14.48;75.84
12536;BME280;6334;48.696;2.114;2023-08-07T05:24:05;100386.34;;;14.79;74.60
12536;BME280;6334;48.696;2.114;2023-08-07T05:26:37;100387.88;;;14.80;76.03
12536;BME280;6334;48.696;2.114;2023-08-07T05:29:09;100390.91;;;14.34;78.70
12536;BME280;6334;48.696;2.114;2023-08-07T05:31:39;100388.30;;;14.66;76.82
12536;BME280;6334;48.696;2.114;2023-08-07T05:34:10;100397.55;;;14.86;75.01
12536;BME280;6334;48.696;2.114;2023-08-07T05:36:40;100394.01;;;15.04;74.96
12536;BME280;6334;48.696;2.114;2023-08-07T05:39:11;100394.56;;;14.88;76.36
12536;BME280;6334;48.696;2.114;2023-08-07T05:41:41;100402.33;;;14.93;76.17
12536;BME280;6334;48.696;2.114;2023-08-07T05:44:11;100407.05;;;15.19;74.81
12536;BME280;6334;48.696;2.114;2023-08-07T05:46:42;100406.63;;;15.02;74.23
12536;BME280;6334;48.696;2.114;2023-08-07T05:49:12;100406.13;;;14.77;75.53
12536;BME280;6334;48.696;2.114;2023-08-07T05:51:43;100412.14;;;14.79;75.71
12536;BME280;6334;48.696;2.114;2023-08-07T05:54:13;100415.46;;;14.86;75.64
12536;BME280;6334;48.696;2.114;2023-08-07T05:56:44;100414.11;;;14.90;76.77
12536;BME280;6334;48.696;2.114;2023-08-07T05:59:14;100418.26;;;14.60;78.29
12536;BME280;6334;48.696;2.114;2023-08-07T06:01:45;100409.91;;;15.18;75.48
12536;BME280;6334;48.696;2.114;2023-08-07T06:04:15;100420.30;;;15.01;76.50
12536;BME280;6334;48.696;2.114;2023-08-07T06:06:46;100414.78;;;14.94;76.13
12536;BME280;6334;48.696;2.114;2023-08-07T06:09:16;100413.67;;;15.29;75.48
12536;BME280;6334;48.696;2.114;2023-08-07T06:11:47;100414.58;;;15.40;75.06
12536;BME280;6334;48.696;2.114;2023-08-07T06:14:17;100418.45;;;15.23;76.34
12536;BME280;6334;48.696;2.114;2023-08-07T06:16:48;100421.70;;;15.33;74.89
12536;BME280;6334;48.696;2.114;2023-08-07T06:19:18;100425.45;;;15.24;76.74
12536;BME280;6334;48.696;2.114;2023-08-07T06:21:49;100420.34;;;15.07;78.06
12536;BME280;6334;48.696;2.114;2023-08-07T06:24:19;100429.55;;;15.08;77.47
12536;BME280;6334;48.696;2.114;2023-08-07T06:26:50;100434.06;;;15.25;77.39
12536;BME280;6334;48.696;2.114;2023-08-07T06:29:20;100430.66;;;15.60;75.73
12536;BME280;6334;48.696;2.114;2023-08-07T06:31:51;100435.62;;;15.50;74.98
12536;BME280;6334;48.696;2.114;2023-08-07T06:34:21;100442.97;;;15.70;75.34
12536;BME280;6334;48.696;2.114;2023-08-07T06:36:51;100438.12;;;15.41;75.47
12536;BME280;6334;48.696;2.114;2023-08-07T06:39:22;100441.02;;;15.39;76.28
12536;BME280;6334;48.696;2.114;2023-08-07T06:41:52;100440.00;;;15.82;73.99
12536;BME280;6334;48.696;2.114;2023-08-07T06:44:23;100448.05;;;16.00;74.42
12536;BME280;6334;48.696;2.114;2023-08-07T06:46:53;100445.78;;;15.86;74.41
12536;BME280;6334;48.696;2.114;2023-08-07T06:49:25;100448.23;;;15.52;77.17
12536;BME280;6334;48.696;2.114;2023-08-07T06:51:55;100449.72;;;15.72;76.54
12536;BME280;6334;48.696;2.114;2023-08-07T06:54:26;100453.06;;;15.80;76.42
12536;BME280;6334;48.696;2.114;2023-08-07T06:56:56;100451.77;;;15.49;76.75
12536;BME280;6334;48.696;2.114;2023-08-07T06:59:27;100459.97;;;15.11;77.99
12536;BME280;6334;48.696;2.114;2023-08-07T07:01:57;100460.56;;;15.35;77.33
12536;BME280;6334;48.696;2.114;2023-08-07T07:04:27;100457.69;;;15.79;76.05
12536;BME280;6334;48.696;2.114;2023-08-07T07:06:58;100462.25;;;15.71;76.57
12536;BME280;6334;48.696;2.114;2023-08-07T07:09:28;100468.84;;;16.08;74.94
12536;BME280;6334;48.696;2.114;2023-08-07T07:11:59;100466.84;;;15.55;76.86
12536;BME280;6334;48.696;2.114;2023-08-07T07:14:29;100471.80;;;15.85;76.22
12536;BME280;6334;48.696;2.114;2023-08-07T07:17:00;100472.08;;;15.38;77.54
12536;BME280;6334;48.696;2.114;2023-08-07T07:19:30;100478.14;;;16.04;74.10
12536;BME280;6334;48.696;2.114;2023-08-07T07:22:01;100479.97;;;16.08;74.04
12536;BME280;6334;48.696;2.114;2023-08-07T07:24:31;100478.38;;;15.63;76.08
12536;BME280;6334;48.696;2.114;2023-08-07T07:27:02;100477.97;;;15.99;74.48
12536;BME280;6334;48.696;2.114;2023-08-07T07:29:32;100480.66;;;15.60;76.34
12536;BME280;6334;48.696;2.114;2023-08-07T07:32:03;100480.12;;;15.91;75.11
12536;BME280;6334;48.696;2.114;2023-08-07T07:34:33;100475.05;;;15.99;75.70
12536;BME280;6334;48.696;2.114;2023-08-07T07:37:04;100465.89;;;15.89;75.47
12536;BME280;6334;48.696;2.114;2023-08-07T07:39:34;100471.99;;;15.75;76.73
12536;BME280;6334;48.696;2.114;2023-08-07T07:42:05;100478.22;;;16.23;73.66
12536;BME280;6334;48.696;2.114;2023-08-07T07:44:35;100486.41;;;16.40;73.42
12536;BME280;6334;48.696;2.114;2023-08-07T07:47:07;100496.17;;;16.38;73.48
12536;BME280;6334;48.696;2.114;2023-08-07T07:49:36;100500.52;;;16.22;75.18
12536;BME280;6334;48.696;2.114;2023-08-07T07:52:07;100507.08;;;16.52;73.45
12536;BME280;6334;48.696;2.114;2023-08-07T07:54:37;100503.88;;;16.22;74.58
12536;BME280;6334;48.696;2.114;2023-08-07T07:57:07;100496.65;;;16.06;74.97
12536;BME280;6334;48.696;2.114;2023-08-07T07:59:38;100499.52;;;16.12;74.31
12536;BME280;6334;48.696;2.114;2023-08-07T08:02:08;100500.59;;;15.75;76.12
12536;BME280;6334;48.696;2.114;2023-08-07T08:04:39;100504.28;;;15.78;75.35
12536;BME280;6334;48.696;2.114;2023-08-07T08:07:09;100508.05;;;16.11;74.14
12536;BME280;6334;48.696;2.114;2023-08-07T08:09:40;100513.09;;;16.40;73.48
12536;BME280;6334;48.696;2.114;2023-08-07T08:12:10;100509.81;;;16.58;72.44
12536;BME280;6334;48.696;2.114;2023-08-07T08:14:41;100505.31;;;17.40;69.75
12536;BME280;6334;48.696;2.114;2023-08-07T08:17:11;100498.11;;;17.10;71.71
12536;BME280;6334;48.696;2.114;2023-08-07T08:19:42;100507.02;;;17.62;69.59
12536;BME280;6334;48.696;2.114;2023-08-07T08:22:12;100511.69;;;17.31;71.05
12536;BME280;6334;48.696;2.114;2023-08-07T08:24:43;100508.25;;;17.68;69.41
12536;BME280;6334;48.696;2.114;2023-08-07T08:27:13;100501.23;;;18.12;68.43
12536;BME280;6334;48.696;2.114;2023-08-07T08:29:43;100508.31;;;18.04;68.80
12536;BME280;6334;48.696;2.114;2023-08-07T08:32:14;100505.58;;;17.95;69.45
12536;BME280;6334;48.696;2.114;2023-08-07T08:34:44;100510.21;;;17.60;70.47
12536;BME280;6334;48.696;2.114;2023-08-07T08:37:15;100512.56;;;18.27;67.09
12536;BME280;6334;48.696;2.114;2023-08-07T08:39:47;100506.94;;;17.59;69.05
12536;BME280;6334;48.696;2.114;2023-08-07T08:42:17;100513.57;;;18.38;66.71
12536;BME280;6334;48.696;2.114;2023-08-07T08:44:54;100509.51;;;18.83;65.16
12536;BME280;6334;48.696;2.114;2023-08-07T08:47:25;100510.04;;;18.93;65.46
12536;BME280;6334;48.696;2.114;2023-08-07T08:50:07;100516.10;;;18.48;67.71
12536;BME280;6334;48.696;2.114;2023-08-07T08:52:36;100515.59;;;18.57;66.57
12536;BME280;6334;48.696;2.114;2023-08-07T08:55:06;100513.55;;;18.96;66.23
12536;BME280;6334;48.696;2.114;2023-08-07T08:57:37;100518.09;;;18.42;68.05
12536;BME280;6334;48.696;2.114;2023-08-07T09:00:07;100512.37;;;19.08;66.02
12536;BME280;6334;48.696;2.114;2023-08-07T09:02:41;100511.03;;;18.87;66.68
12536;BME280;6334;48.696;2.114;2023-08-07T09:05:11;100516.50;;;19.19;66.70
12536;BME280;6334;48.696;2.114;2023-08-07T09:07:41;100517.20;;;18.69;66.50
12536;BME280;6334;48.696;2.114;2023-08-07T09:10:12;100514.21;;;18.91;66.34
12536;BME280;6334;48.696;2.114;2023-08-07T09:12:45;100518.80;;;18.84;65.69
12536;BME280;6334;48.696;2.114;2023-08-07T09:15:13;100517.01;;;19.15;65.99
12536;BME280;6334;48.696;2.114;2023-08-07T09:17:43;100519.88;;;19.46;64.80
12536;BME280;6334;48.696;2.114;2023-08-07T09:20:14;100519.34;;;19.68;63.93
12536;BME280;6334;48.696;2.114;2023-08-07T09:22:44;100519.19;;;19.21;65.35
12536;BME280;6334;48.696;2.114;2023-08-07T09:25:15;100526.71;;;18.27;69.05
12536;BME280;6334;48.696;2.114;2023-08-07T09:27:45;100524.52;;;19.34;63.57
12536;BME280;6334;48.696;2.114;2023-08-07T09:30:15;100528.00;;;19.54;62.98
12536;BME280;6334;48.696;2.114;2023-08-07T09:32:47;100528.36;;;20.07;61.78
12536;BME280;6334;48.696;2.114;2023-08-07T09:35:19;100521.83;;;19.06;64.26
12536;BME280;6334;48.696;2.114;2023-08-07T09:37:47;100520.11;;;19.71;64.12
12536;BME280;6334;48.696;2.114;2023-08-07T09:40:20;100520.34;;;19.31;63.50
12536;BME280;6334;48.696;2.114;2023-08-07T09:42:52;100517.59;;;19.53;61.82
12536;BME280;6334;48.696;2.114;2023-08-07T09:45:28;100520.30;;;18.53;64.74
12536;BME280;6334;48.696;2.114;2023-08-07T09:48:01;100521.38;;;19.49;62.61
12536;BME280;6334;48.696;2.114;2023-08-07T09:50:31;100515.52;;;19.51;61.62
12536;BME280;6334;48.696;2.114;2023-08-07T09:53:01;100505.22;;;19.60;61.24
12536;BME280;6334;48.696;2.114;2023-08-07T09:55:32;100510.28;;;19.54;62.56
12536;BME280;6334;48.696;2.114;2023-08-07T09:58:02;100511.35;;;18.71;63.31
12536;BME280;6334;48.696;2.114;2023-08-07T10:00:35;100509.31;;;19.86;60.49
12536;BME280;6334;48.696;2.114;2023-08-07T10:03:06;100514.76;;;19.08;60.44
12536;BME280;6334;48.696;2.114;2023-08-07T10:05:36;100516.04;;;19.25;62.77
12536;BME280;6334;48.696;2.114;2023-08-07T10:08:07;100516.28;;;19.12;63.68
12536;BME280;6334;48.696;2.114;2023-08-07T10:10:40;100510.69;;;19.79;61.25
12536;BME280;6334;48.696;2.114;2023-08-07T10:13:11;100509.09;;;19.77;60.94
12536;BME280;6334;48.696;2.114;2023-08-07T10:15:41;100510.78;;;20.03;57.89
12536;BME280;6334;48.696;2.114;2023-08-07T10:18:11;100500.95;;;19.84;58.87
12536;BME280;6334;48.696;2.114;2023-08-07T10:20:42;100503.02;;;20.32;59.90
12536;BME280;6334;48.696;2.114;2023-08-07T10:23:12;100490.25;;;19.42;60.63
12536;BME280;6334;48.696;2.114;2023-08-07T10:25:43;100500.23;;;19.62;62.06
12536;BME280;6334;48.696;2.114;2023-08-07T10:28:13;100503.62;;;20.12;59.77
12536;BME280;6334;48.696;2.114;2023-08-07T10:30:43;100503.08;;;19.69;57.59
12536;BME280;6334;48.696;2.114;2023-08-07T10:33:14;100504.92;;;20.28;57.39
12536;BME280;6334;48.696;2.114;2023-08-07T10:35:45;100499.34;;;19.60;60.24
12536;BME280;6334;48.696;2.114;2023-08-07T10:38:19;100501.61;;;19.79;57.50
12536;BME280;6334;48.696;2.114;2023-08-07T10:41:01;100507.60;;;20.12;58.86
12536;BME280;6334;48.696;2.114;2023-08-07T10:43:30;100503.94;;;20.67;55.76
12536;BME280;6334;48.696;2.114;2023-08-07T10:46:03;100500.95;;;20.47;56.45
12536;BME280;6334;48.696;2.114;2023-08-07T10:48:42;100505.27;;;20.70;55.91
12536;BME280;6334;48.696;2.114;2023-08-07T10:51:15;100494.25;;;20.57;54.20
12536;BME280;6334;48.696;2.114;2023-08-07T10:53:43;100485.34;;;20.78;54.32
12536;BME280;6334;48.696;2.114;2023-08-07T10:56:31;100481.98;;;20.94;54.66
12536;BME280;6334;48.696;2.114;2023-08-07T10:59:09;100487.20;;;20.73;56.46
12536;BME280;6334;48.696;2.114;2023-08-07T11:01:43;100484.69;;;20.44;56.83
12536;BME280;6334;48.696;2.114;2023-08-07T11:04:15;100489.97;;;20.34;55.91
12536;BME280;6334;48.696;2.114;2023-08-07T11:06:49;100483.95;;;20.70;53.16
12536;BME280;6334;48.696;2.114;2023-08-07T11:09:19;100484.59;;;20.49;53.03
12536;BME280;6334;48.696;2.114;2023-08-07T11:11:50;100485.14;;;20.23;56.14
12536;BME280;6334;48.696;2.114;2023-08-07T11:14:20;100488.16;;;20.74;52.94
12536;BME280;6334;48.696;2.114;2023-08-07T11:16:51;100483.79;;;20.36;57.61
12536;BME280;6334;48.696;2.114;2023-08-07T11:19:22;100477.95;;;19.83;57.32
12536;BME280;6334;48.696;2.114;2023-08-07T11:21:52;100479.92;;;19.94;54.75
12536;BME280;6334;48.696;2.114;2023-08-07T11:24:23;100482.34;;;19.68;56.84
12536;BME280;6334;48.696;2.114;2023-08-07T11:26:55;100482.95;;;19.31;56.22
12536;BME280;6334;48.696;2.114;2023-08-07T11:29:24;100483.16;;;19.53;57.76
12536;BME280;6334;48.696;2.114;2023-08-07T11:31:54;100479.97;;;20.70;54.03
12536;BME280;6334;48.696;2.114;2023-08-07T11:34:25;100476.31;;;20.67;54.04
12536;BME280;6334;48.696;2.114;2023-08-07T11:36:55;100479.07;;;20.60;53.96
12536;BME280;6334;48.696;2.114;2023-08-07T11:39:26;100465.91;;;20.81;54.73
12536;BME280;6334;48.696;2.114;2023-08-07T11:41:57;100460.73;;;21.33;52.70
12536;BME280;6334;48.696;2.114;2023-08-07T11:44:28;100459.72;;;20.94;53.34
12536;BME280;6334;48.696;2.114;2023-08-07T11:46:58;100453.33;;;21.25;52.28
12536;BME280;6334;48.696;2.114;2023-08-07T11:49:29;100458.67;;;20.54;51.50
12536;BME280;6334;48.696;2.114;2023-08-07T11:51:59;100454.88;;;20.29;52.96
12536;BME280;6334;48.696;2.114;2023-08-07T11:54:30;100451.51;;;20.36;52.31
12536;BME280;6334;48.696;2.114;2023-08-07T11:57:00;100450.16;;;20.12;52.89
12536;BME280;6334;48.696;2.114;2023-08-07T11:59:31;100444.94;;;20.81;52.00
12536;BME280;6334;48.696;2.114;2023-08-07T12:02:08;100442.53;;;20.86;51.46
12536;BME280;6334;48.696;2.114;2023-08-07T12:04:31;100443.77;;;21.47;53.62
12536;BME280;6334;48.696;2.114;2023-08-07T12:07:02;100440.53;;;20.78;54.35
12536;BME280;6334;48.696;2.114;2023-08-07T12:09:32;100444.41;;;20.36;52.94
12536;BME280;6334;48.696;2.114;2023-08-07T12:12:03;100440.52;;;20.35;53.95
12536;BME280;6334;48.696;2.114;2023-08-07T12:14:35;100442.20;;;20.33;55.09
12536;BME280;6334;48.696;2.114;2023-08-07T12:17:04;100430.45;;;20.71;54.35
12536;BME280;6334;48.696;2.114;2023-08-07T12:19:39;100426.84;;;20.21;53.46
12536;BME280;6334;48.696;2.114;2023-08-07T12:22:09;100422.75;;;21.13;52.78
12536;BME280;6334;48.696;2.114;2023-08-07T12:24:37;100425.33;;;21.40;53.61
12536;BME280;6334;48.696;2.114;2023-08-07T12:27:07;100426.73;;;20.86;52.04
12536;BME280;6334;48.696;2.114;2023-08-07T12:29:38;100424.30;;;20.62;53.38
12536;BME280;6334;48.696;2.114;2023-08-07T12:32:08;100417.49;;;20.59;52.59
12536;BME280;6334;48.696;2.114;2023-08-07T12:34:39;100411.84;;;21.16;49.81
12536;BME280;6334;48.696;2.114;2023-08-07T12:37:09;100410.78;;;21.60;50.29
12536;BME280;6334;48.696;2.114;2023-08-07T12:39:40;100407.27;;;21.03;50.97
12536;BME280;6334;48.696;2.114;2023-08-07T12:42:10;100412.22;;;21.63;49.57
12536;BME280;6334;48.696;2.114;2023-08-07T12:44:40;100409.26;;;21.83;50.69
12536;BME280;6334;48.696;2.114;2023-08-07T12:47:11;100415.05;;;21.74;50.96
12536;BME280;6334;48.696;2.114;2023-08-07T12:49:41;100408.84;;;22.11;48.72
12536;BME280;6334;48.696;2.114;2023-08-07T12:52:12;100407.88;;;21.45;50.43
12536;BME280;6334;48.696;2.114;2023-08-07T12:54:42;100408.27;;;21.42;51.68
12536;BME280;6334;48.696;2.114;2023-08-07T12:57:16;100414.70;;;21.84;50.17
12536;BME280;6334;48.696;2.114;2023-08-07T12:59:46;100411.75;;;21.63;49.64
12536;BME280;6334;48.696;2.114;2023-08-07T13:02:17;100411.78;;;21.54;48.28
12536;BME280;6334;48.696;2.114;2023-08-07T13:04:47;100409.40;;;21.35;48.33
12536;BME280;6334;48.696;2.114;2023-08-07T13:07:17;100406.11;;;21.03;48.55
12536;BME280;6334;48.696;2.114;2023-08-07T13:09:48;100408.30;;;20.91;48.76
12536;BME280;6334;48.696;2.114;2023-08-07T13:12:18;100403.97;;;21.10;50.80
12536;BME280;6334;48.696;2.114;2023-08-07T13:14:49;100406.23;;;21.69;48.66
12536;BME280;6334;48.696;2.114;2023-08-07T13:17:19;100403.45;;;21.72;48.82
12536;BME280;6334;48.696;2.114;2023-08-07T13:19:50;100407.12;;;22.10;47.90